createdAt,value
2023-04-27T00:01:41.303Z,3.90
2023-04-27T00:06:45.959Z,3.45
2023-04-27T00:11:49.372Z,2.80
2023-04-27T00:16:52.771Z,3.10
2023-04-27T00:22:01.486Z,3.15
2023-04-27T00:27:05.246Z,3.65
2023-04-27T00:32:11.565Z,3.45
2023-04-27T00:37:16.648Z,3.17
2023-04-27T00:42:25.175Z,2.90
2023-04-27T00:47:28.676Z,2.42
2023-04-27T00:52:33.406Z,2.45
2023-04-27T00:57:36.867Z,3.13
2023-04-27T01:02:43.989Z,2.92
2023-04-27T01:07:49.062Z,3.20
2023-04-27T01:12:52.467Z,3.33
2023-04-27T01:17:59.971Z,3.22
2023-04-27T01:23:04.873Z,3.72
2023-04-27T01:28:09.572Z,3.10
2023-04-27T01:33:13.339Z,3.58
2023-04-27T01:38:16.820Z,3.08
2023-04-27T01:43:21.425Z,2.65
2023-04-27T01:48:24.919Z,3.42
2023-04-27T01:53:28.547Z,3.08
2023-04-27T01:58:33.423Z,4.28
2023-04-27T02:03:37.461Z,3.58
2023-04-27T02:08:40.948Z,3.55
2023-04-27T02:13:45.764Z,4.38
2023-04-27T02:18:49.426Z,3.25
2023-04-27T02:23:52.801Z,3.25
2023-04-27T02:28:58.168Z,3.70
2023-04-27T02:34:02.480Z,4.15
2023-04-27T02:39:06.874Z,3.42
2023-04-27T02:44:12.647Z,4.20
2023-04-27T02:49:17.060Z,3.67
2023-04-27T02:54:20.572Z,3.75
2023-04-27T02:59:25.421Z,3.42
2023-04-27T03:04:29.079Z,3.15
2023-04-27T03:09:35.316Z,2.88
2023-04-27T03:14:40.010Z,3.70
2023-04-27T03:19:43.661Z,3.92
2023-04-27T03:24:50.337Z,3.03
2023-04-27T03:29:54.972Z,3.20
2023-04-27T03:34:59.304Z,3.50
2023-04-27T03:40:07.666Z,2.95
2023-04-27T03:45:13.422Z,2.75
2023-04-27T03:50:16.829Z,3.10
2023-04-27T03:55:20.414Z,3.65
2023-04-27T04:00:25.885Z,2.85
2023-04-27T04:05:32.921Z,3.67
2023-04-27T04:10:36.278Z,4.15
2023-04-27T04:15:41.053Z,3.58
2023-04-27T04:20:44.359Z,3.22
2023-04-27T04:25:48.481Z,3.92
2023-04-27T04:30:53.660Z,3.08
2023-04-27T04:35:57.462Z,3.33
2023-04-27T04:41:01.293Z,3.00
2023-04-27T04:46:06.632Z,3.20
2023-04-27T04:51:10.099Z,3.40
2023-04-27T04:56:16.530Z,2.80
2023-04-27T05:01:23.656Z,3.33
2023-04-27T05:06:32.046Z,3.47
2023-04-27T05:11:38.418Z,3.42
2023-04-27T05:16:43.270Z,3.30
2023-04-27T05:21:48.312Z,3.22
2023-04-27T05:26:51.632Z,3.58
2023-04-27T05:31:59.929Z,3.28
2023-04-27T05:37:07.056Z,3.10
2023-04-27T05:42:12.316Z,3.60
2023-04-27T05:47:17.601Z,2.60
2023-04-27T05:52:21.233Z,3.05
2023-04-27T05:57:27.617Z,4.43
2023-04-27T06:02:32.512Z,2.92
2023-04-27T06:07:37.639Z,3.30
2023-04-27T06:12:41.069Z,2.97
2023-04-27T06:17:47.757Z,3.10
2023-04-27T06:22:52.230Z,2.60
2023-04-27T06:27:57.753Z,3.00
2023-04-27T06:33:02.949Z,3.53
2023-04-27T06:38:08.065Z,2.75
2023-04-27T06:43:13.197Z,2.40
2023-04-27T06:48:18.397Z,3.50
2023-04-27T06:53:27.078Z,3.08
2023-04-27T07:04:04.421Z,3.53
2023-04-27T07:09:16.645Z,2.95
2023-04-27T07:14:24.009Z,3.28
2023-04-27T07:19:28.835Z,2.97
2023-04-27T07:24:32.269Z,5.18
2023-04-27T07:29:40.998Z,3.20
2023-04-27T07:34:53.698Z,3.40
2023-04-27T07:39:57.809Z,3.65
2023-04-27T07:45:02.200Z,3.55
2023-04-27T07:50:09.928Z,3.85
2023-04-27T07:55:14.682Z,3.67
2023-04-27T08:00:18.620Z,3.42
2023-04-27T08:05:25.396Z,3.58
2023-04-27T08:10:29.633Z,3.35
2023-04-27T08:15:33.046Z,3.70
2023-04-27T08:20:37.730Z,3.72
2023-04-27T08:25:42.071Z,3.97
2023-04-27T08:30:49.105Z,3.97
2023-04-27T08:35:55.407Z,3.67
2023-04-27T08:41:14.200Z,4.10
2023-04-27T08:46:25.298Z,4.18
2023-04-27T08:51:35.686Z,4.00
2023-04-27T08:56:42.906Z,3.90
2023-04-27T09:01:52.007Z,3.00
2023-04-27T09:06:58.951Z,2.97
2023-04-27T09:23:03.506Z,3.60
2023-04-27T09:28:12.178Z,2.90
2023-04-27T09:33:16.504Z,2.40
2023-04-27T09:38:24.070Z,2.03
2023-04-27T09:43:29.821Z,1.90
2023-04-27T09:48:35.199Z,2.00
2023-04-27T09:53:45.669Z,2.08
2023-04-27T09:59:15.491Z,2.30
2023-04-27T10:04:36.423Z,2.28
2023-04-27T10:09:43.039Z,2.53
2023-04-27T10:14:55.780Z,2.30
2023-04-27T10:20:00.340Z,2.00
2023-04-27T10:25:21.886Z,2.33
2023-04-27T10:30:30.138Z,1.48
2023-04-27T10:35:39.893Z,1.15
2023-04-27T10:40:48.464Z,1.30
2023-04-27T10:45:51.926Z,1.13
2023-04-27T10:50:57.556Z,1.10
2023-04-27T10:56:13.227Z,1.50
2023-04-27T11:01:26.137Z,1.17
2023-04-27T11:06:30.948Z,0.73
2023-04-27T11:11:36.149Z,0.70
2023-04-27T11:16:48.037Z,1.10
2023-04-27T11:21:54.670Z,1.15
2023-04-27T11:27:00.522Z,1.15
2023-04-27T11:32:05.425Z,1.30
2023-04-27T11:42:23.133Z,0.73
2023-04-27T11:53:09.593Z,0.60
2023-04-27T11:58:31.360Z,0.90
2023-04-27T12:03:46.055Z,0.88
2023-04-27T12:08:53.339Z,1.00
2023-04-27T12:14:01.054Z,1.15
2023-04-27T12:19:06.858Z,1.70
2023-04-27T12:24:13.569Z,0.90
2023-04-27T12:29:19.161Z,1.00
2023-04-27T12:34:24.955Z,0.73
2023-04-27T12:45:00.531Z,1.10
2023-04-27T12:50:05.725Z,0.85
2023-04-27T12:55:24.836Z,0.90
2023-04-27T13:00:41.011Z,0.80
2023-04-27T13:05:46.893Z,1.10
2023-04-27T13:10:51.366Z,0.93
2023-04-27T13:15:56.614Z,0.95
2023-04-27T13:21:02.216Z,0.88
2023-04-27T13:26:09.096Z,0.88
2023-04-27T13:31:17.075Z,0.90
2023-04-27T13:36:22.571Z,0.80
2023-04-27T13:41:28.965Z,0.82
2023-04-27T13:46:36.827Z,0.73
2023-04-27T13:51:42.882Z,0.63
2023-04-27T13:56:58.187Z,0.70
2023-04-27T14:02:08.673Z,0.70
2023-04-27T14:07:30.915Z,0.88
2023-04-27T14:12:40.074Z,1.05
2023-04-27T14:17:48.212Z,0.93
2023-04-27T14:22:53.299Z,0.70
2023-04-27T14:27:57.696Z,0.70
2023-04-27T14:33:05.521Z,0.80
2023-04-27T14:38:19.869Z,0.70
2023-04-27T14:43:25.536Z,0.75
2023-04-27T14:48:38.078Z,0.80
2023-04-27T14:53:42.040Z,0.93
2023-04-27T14:58:49.135Z,1.13
2023-04-27T15:03:59.739Z,0.75
2023-04-27T15:09:04.764Z,0.85
2023-04-27T15:14:12.890Z,0.65
2023-04-27T15:20:07.323Z,0.82
2023-04-27T15:25:13.806Z,0.85
2023-04-27T15:47:15.924Z,1.20
2023-04-27T15:52:21.908Z,0.82
2023-04-27T15:57:48.990Z,0.77
2023-04-27T16:02:57.071Z,0.50
2023-04-27T16:08:06.680Z,0.68
2023-04-27T16:13:13.398Z,0.80
2023-04-27T16:18:25.521Z,0.90
2023-04-27T16:23:29.030Z,0.80
2023-04-27T16:28:51.935Z,0.80
2023-04-27T16:33:59.065Z,0.88
2023-04-27T16:39:24.967Z,0.70
2023-04-27T16:44:29.041Z,0.60
2023-04-27T16:49:34.445Z,1.10
2023-04-27T16:54:41.263Z,0.73
2023-04-27T16:59:47.420Z,0.70
2023-04-27T17:04:54.920Z,1.08
2023-04-27T17:09:59.277Z,0.90
2023-04-27T17:15:05.010Z,1.08
2023-04-27T17:20:16.162Z,0.90
2023-04-27T17:25:20.106Z,1.13
2023-04-27T17:30:25.469Z,0.90
2023-04-27T17:35:30.773Z,1.15
2023-04-27T17:40:36.475Z,0.93
2023-04-27T17:45:46.775Z,1.13
2023-04-27T17:50:51.748Z,0.98
2023-04-27T17:55:57.082Z,1.23
2023-04-27T18:01:00.687Z,1.00
2023-04-27T18:06:07.042Z,1.30
2023-04-27T18:11:18.101Z,1.20
2023-04-27T18:16:23.237Z,1.40
2023-04-27T18:21:28.546Z,1.40
2023-04-27T18:26:39.250Z,1.70
2023-04-27T18:31:42.642Z,1.27
2023-04-27T18:36:52.166Z,1.10
2023-04-27T18:41:59.238Z,1.80
2023-04-27T18:47:04.847Z,1.73
2023-04-27T18:52:11.659Z,1.50
2023-04-27T18:57:16.632Z,1.40
2023-04-27T19:02:28.184Z,1.60
2023-04-27T19:07:35.504Z,1.10
2023-04-27T19:12:41.625Z,1.67
2023-04-27T19:17:55.322Z,1.90
2023-04-27T19:23:12.711Z,1.80
2023-04-27T19:28:20.868Z,1.60
2023-04-27T19:33:24.431Z,2.00
2023-04-27T19:38:35.856Z,2.00
2023-04-27T19:43:39.707Z,1.80
2023-04-27T19:48:50.037Z,2.17
2023-04-27T19:54:01.067Z,7.57
2023-04-27T19:59:06.874Z,6.68
2023-04-27T20:04:26.908Z,5.88
2023-04-27T20:09:33.983Z,4.80
2023-04-27T20:14:38.989Z,3.83
2023-04-27T20:19:49.724Z,2.97
2023-04-27T20:25:08.263Z,2.72
2023-04-27T20:30:25.855Z,3.10
2023-04-27T20:35:31.563Z,4.07
2023-04-27T20:40:40.042Z,4.13
2023-04-27T20:45:49.097Z,5.32
2023-04-27T20:51:02.932Z,5.38
2023-04-27T20:56:15.676Z,3.13
2023-04-27T21:01:30.775Z,2.90
2023-04-27T21:06:46.793Z,2.22
2023-04-27T21:12:03.279Z,2.92
2023-04-27T21:17:10.934Z,2.95
2023-04-27T21:22:14.991Z,2.60
2023-04-27T21:27:25.431Z,2.90
2023-04-27T21:32:29.332Z,2.97
2023-04-27T21:37:43.388Z,3.05
2023-04-27T21:42:52.205Z,2.30
2023-04-27T21:48:04.560Z,2.90
2023-04-27T21:53:12.676Z,2.78
2023-04-27T21:58:23.789Z,2.90
2023-04-27T22:03:53.616Z,2.70
2023-04-27T22:08:58.084Z,2.70
2023-04-27T22:14:10.132Z,3.15
2023-04-27T22:19:18.121Z,3.38
2023-04-27T22:24:26.892Z,3.53
2023-04-27T22:29:32.071Z,2.70
2023-04-27T22:34:37.460Z,3.50
2023-04-27T22:39:41.566Z,3.40
2023-04-27T22:44:47.101Z,2.60
2023-04-27T22:49:50.470Z,2.60
2023-04-27T22:54:53.697Z,2.33
2023-04-27T22:59:58.419Z,2.40
2023-04-27T23:05:05.039Z,2.80
2023-04-27T23:10:11.335Z,2.47
2023-04-27T23:15:16.617Z,2.60
2023-04-27T23:20:27.923Z,2.45
2023-04-27T23:25:33.711Z,2.42
2023-04-27T23:30:38.598Z,2.50
2023-04-27T23:35:41.948Z,2.60
2023-04-27T23:40:46.501Z,3.40
2023-04-27T23:45:52.457Z,2.63
2023-04-27T23:51:13.526Z,3.20
2023-04-27T23:56:20.683Z,3.53
